x

West Bermuda - 240 Nm West Of Bermuda (41048) Wave Buoy

2:50am - Fri 20th Jan 2017 All times are UTC.

  • Sig Wave height 10.5ft
  • Swell Direction
  • Peak Period 9s
  • Average Period 7s
  • Wind
    18mph, 22mph gusts
  • Sea Temp 70°f
  • Air Temp 66°f
  • Sea Pressure 1013.1mb

More Historic Weather Station data

Upgrade to MSW Pro to gain access to the past 30 days of data for over 8000 Wavebouys and Weather Stations around the globe.

Join Pro

Comparision Forecast

View Surf forecast
   
Fri 01/20 2:50am 10.5ft 9s 7s 18 22 mph 1013.1mb 70f 66f
1:50am 11ft 10s 7s 20 25 mph 1013mb 70f 67f
Thu 01/19 11:50pm 11ft 10s 7s 20 25 mph 1012.6mb 70f 66f
10:50pm 12ft 10s 7s 22 25 mph 1011.8mb 70f 67f
9:50pm 12.5ft 11s 7s 22 27 mph 1011mb 70f 67f
8:50pm 12.5ft 10s 8s 22 29 mph 1010.7mb 70f 67f
7:50pm 14ft 10s 8s 22 27 mph 1010.2mb 70f 67f
6:50pm 13.5ft 10s 8s 20 25 mph 1010.1mb 70f 66f
5:50pm 14ft 11s 8s 25 31 mph 1010mb 70f 66f
4:50pm 14.5ft 10s 8s 25 31 mph 1010.4mb 70f 66f
3:50pm 15ft 11s 8s 25 31 mph 1011mb 70f 66f
2:50pm 15ft 10s 8s 22 29 mph 1011.7mb 70f 67f
1:50pm 15.5ft 11s 8s 27 31 mph 1011.2mb 70f 66f
12:50pm 15.5ft 10s 8s 27 34 mph 1010.4mb 70f 67f
11:50am 15.5ft 10s 8s 29 36 mph 1009.7mb 70f 66f
10:50am 14ft 10s 7s 27 34 mph 1009mb 70f 66f
9:50am 15.5ft 10s 8s 31 38 mph 1008.4mb 70f 67f
8:50am 13.5ft 9s 7s 29 38 mph 1008.2mb 70f 67f
7:50am 12ft 9s 7s 34 38 mph 1007.7mb 70f 67f
6:50am 12ft 8s 7s 34 40 mph 1007.5mb 70f 67f
5:50am 11ft 8s 6s 34 38 mph 1007.4mb 70f 67f
4:50am 10.5ft 8s 6s 31 40 mph 1007.4mb 70f 68f
3:50am 11ft 8s 6s 27 31 mph 1008.1mb 70f 67f
2:50am 9ft 8s 6s 38 47 mph 1008.1mb 70f 68f
1:50am 8.5ft 7s 6s 29 36 mph 1008.5mb 70f 71f
12:50am 8ft 7s 6s 27 31 mph 1009.5mb 70f 70f
Wed 01/18 11:50pm 7ft 7s 5s 27 31 mph 1010.1mb 70f 70f
10:50pm 8ft 7s 6s 22 29 mph 1011.2mb 70f 68f
9:50pm 7ft 6s 5s 25 29 mph 1012.1mb 70f 69f
8:50pm 7ft 7s 5s 25 36 mph 1012.7mb 70f 67f
7:50pm 6ft 6s 5s 25 29 mph 1013mb 70f 70f
6:50pm 6ft 7s 5s 25 29 mph 1013.8mb 70f 70f
5:50pm 6.5ft 7s 5s 25 27 mph 1014.8mb 70f 70f
4:50pm 6ft 7s 5s 25 29 mph 1016.1mb 70f 70f
3:50pm 6ft 7s 5s 25 29 mph 1017.9mb 70f 70f
2:50pm 5.5ft 7s 5s 22 27 mph 1019mb 70f 70f
1:50pm 5ft 6s 5s 20 25 mph 1018.9mb 70f 69f
12:50pm 5ft 7s 5s 22 25 mph 1019.1mb 70f 69f
11:50am 5ft 7s 5s 20 25 mph 1019.7mb 70f 69f
10:50am 5ft 6s 5s 20 22 mph 1019.8mb 70f 69f
9:50am 5ft 5s 5s 20 22 mph 1019.9mb 70f 69f
8:50am 4.5ft 5s 5s 20 22 mph 1020.1mb 70f 69f
7:50am 4ft 5s 5s 20 25 mph 1020.9mb 70f 69f
6:50am 4ft 4s 5s 18 20 mph 1021.7mb 70f 69f
5:50am 4ft 8s 5s 18 22 mph 1021.9mb 70f 69f
4:50am 3.5ft 8s 5s 18 20 mph 1022.5mb 70f 68f
3:50am 3.5ft 9s 5s 18 20 mph 1023.1mb 70f 68f
2:50am 3.5ft 9s 5s 16 18 mph 1024mb 70f 68f
1:50am 3.5ft 8s 5s 16 18 mph 1024.5mb 70f 68f
12:50am 3.5ft 9s 6s 16 18 mph 1024.8mb 71f 68f
Tue 01/17 11:50pm 3.5ft 9s 7s 13 16 mph 1024.8mb 71f 68f
10:50pm 3.5ft 9s 7s 11 13 mph 1024.9mb 71f 67f
9:50pm 3.5ft 9s 7s 9 11 mph 1024.7mb 71f 67f
8:50pm 3.5ft 7s 7s 9 11 mph 1024.8mb 71f 67f
7:50pm 3.5ft 8s 6s 7 9 mph 1025mb 71f 67f
6:50pm 3.5ft 8s 7s 7 9 mph 1024.8mb 71f 67f
5:50pm 4ft 8s 7s 2 4 mph 1025.3mb 71f 67f
4:50pm 3.5ft 8s 6s 2 4 mph 1025.9mb 71f 67f
3:50pm 4ft 8s 6s 2 4 mph 1026.8mb 71f 67f
2:50pm 4ft 8s 6s 2 4 mph 1027.8mb 70f 66f
1:50pm 4ft 8s 6s  -  2 mph 1027.4mb 70f 67f
12:50pm 4.5ft 8s 7s 2
mph
1026.9mb 70f 66f
11:50am 4.5ft 8s 6s 2 4 mph 1026.8mb 70f 65f
10:50am 4.5ft 8s 6s  -  2 mph 1026.6mb 70f 65f
9:50am 4.5ft 9s 7s 2 4 mph 1026.2mb 70f 65f
8:50am 4.5ft 8s 7s 2 4 mph 1026.3mb 70f 65f
7:50am 4.5ft 8s 6s 2 7 mph 1026.3mb 70f 65f
6:50am 4.5ft 9s 7s 2 4 mph 1026.6mb 70f 65f
5:50am 4ft 10s 6s 4 7 mph 1026.5mb 70f 65f
4:50am 4.5ft 9s 6s 7 9 mph 1026.8mb 70f 65f
3:50am 4.5ft 8s 6s 7 9 mph 1027.3mb 70f 65f
2:50am 4.5ft 10s 6s 7 9 mph 1027.7mb 70f 65f
1:50am 4.5ft 7s 6s 9 11 mph 1027.7mb 70f 66f
12:50am 4.5ft 7s 6s 9 11 mph 1027.7mb 70f 66f
Mon 01/16 11:50pm 4.5ft 7s 6s 7 11 mph 1027.7mb 70f 66f
10:50pm 4.5ft 8s 6s 9 13 mph 1027.5mb 70f 66f
9:50pm 4.5ft 8s 6s 11 13 mph 1027.3mb 70f 66f
8:50pm 4.5ft 8s 6s 11 13 mph 1026.6mb 70f 66f
7:50pm 4.5ft 7s 6s 11 13 mph 1026.1mb 70f 67f
6:50pm 4.5ft 8s 6s 11 13 mph 1025.8mb 70f 66f
5:50pm 4.5ft 8s 6s 11 13 mph 1026.1mb 70f 67f
4:50pm 4.5ft 8s 6s 11 13 mph 1026.3mb 70f 67f
3:50pm 4.5ft 7s 6s 13 16 mph 1026.9mb 70f 67f
2:50pm 4.5ft 8s 6s 11 13 mph 1027.2mb 70f 67f
1:50pm 4.5ft 8s 6s 7 9 mph 1026.7mb 70f 67f
12:50pm 4.5ft 8s 6s 11
mph
1026.2mb 70f 67f
11:50am 4.5ft 8s 6s 9 11 mph 1025.5mb 70f 67f
10:50am 4.5ft 8s 6s 11 16 mph 1025.3mb 70f 67f
9:50am 4.5ft 8s 6s 11 13 mph 1024.7mb 70f 67f
8:50am 4.5ft 7s 6s 9 11 mph 1024mb 70f 67f
7:50am 4.5ft 9s 6s 9 11 mph 1024.2mb 70f 67f
6:50am 5ft 7s 6s 11 13 mph 1024.2mb 70f 67f
5:50am 4.5ft 10s 6s 9 13 mph 1024.1mb 70f 67f
4:50am 5ft 10s 6s 11 13 mph 1024.1mb 70f 68f